You are listening to:
LKPR Director/Ruzyne Radar - Prague, Czech Republic

LKPR 281700Z 09003KT 050V110 9000 OVC020 03/02 Q1016 NOSIG

If stream doesn't start automatically press the play button
If stream stops then reload player then press play